Atlantic Island — C4VM2 — position and weather

sailwx.info

Track history (hours):
 
Tides and Currents Weather Stations Pressure Air Temp Water Temp Dewpoint Dewpoint Depression Visibility Wind Speed Wind Dir Waves Ship Positions

Atlantic Island

Last reported at 2015-Mar-06 21:26 UTC. Time now 2015-Mar-06 21:43 UTC.
Position N 39°18' E 000°01'.

Length 95 m; draft 3.9 m.

Type: Cargo ship. MMSI: 210754000.

Date/timePositionNaut miles runAvg speedWind from/ knotsBaromVisibWave heightAir tempDewpointWater temp
2015-Mar-06 21:26N 39°18' E 000°01'10 9.3
2015-Mar-06 20:20N 39°27' W 000°05'8 9.3
2015-Mar-06 19:29N 39°34' W 000°10'5 0.2
2015-Mar-05 20:04N 39°39' W 000°13'2 3.4
2015-Mar-05 19:30N 39°37' W 000°12'1 0.9
2015-Mar-05 18:30N 39°37' W 000°11'0 0.0
2015-Mar-05 16:27N 39°37' W 000°11'0 0.0
2015-Mar-04 11:20N 39°37' W 000°11'5 0.2
2015-Mar-03 13:21N 39°33' W 000°07'61 9.8
2015-Mar-03 07:07N 38°37' E 000°24'610.4
2015-Mar-03 06:33N 38°32' E 000°19'1110.6
2015-Mar-03 05:33N 38°23' E 000°11'1110.6
2015-Mar-03 04:33N 38°14' E 000°04'1010.3
2015-Mar-03 03:33N 38°06' W 000°03'1010.3
2015-Mar-03 02:33N 37°57' W 000°10'1010.3
2015-Mar-03 01:33N 37°49' W 000°18'1010.2
2015-Mar-03 00:33N 37°40' W 000°25'1010.1
2015-Mar-02 23:33N 37°32' W 000°33'10 9.9
2015-Mar-02 22:33N 37°31' W 000°45'1010.3
2015-Mar-02 21:33N 37°31' W 000°58'3 0.1
2015-Feb-28 19:15N 37°34' W 000°60'4 6.4
2015-Feb-28 18:33N 37°33' W 001°05'1 0.1
2015-Feb-28 07:27N 37°33' W 001°07'0 0.0
2015-Feb-27 19:32N 37°33' W 001°07'0 0.0
2015-Feb-27 18:26N 37°33' W 001°07'0 0.0
2015-Feb-27 17:08N 37°33' W 001°07'0 0.0
2015-Feb-27 15:20N 37°33' W 001°07'0 0.1
2015-Feb-27 14:32N 37°33' W 001°07'0 0.1
2015-Feb-27 13:33N 37°33' W 001°07'0 0.0
2015-Feb-27 12:09N 37°33' W 001°07'0 0.0
2015-Feb-27 11:21N 37°33' W 001°07'0 0.0
2015-Feb-27 10:19N 37°33' W 001°07'217 9.0
2015-Feb-26 10:06N 35°59' W 005°11'712.4
2015-Feb-26 09:33N 35°58' W 005°19'1511.2
2015-Feb-26 08:15N 35°55' W 005°37'  
Track history (hours):
 
Tides and Currents Weather Stations Pressure Air Temp Water Temp Dewpoint Dewpoint Depression Visibility Wind Speed Wind Dir Waves Ship Positions

Atlantic Island

Last reported at 2015-Mar-06 21:26 UTC. Time now 2015-Mar-06 21:43 UTC.
Position N 39°18' E 000°01'.

Length 95 m; draft 3.9 m.

Type: Cargo ship. MMSI: 210754000.

Date/timePositionNaut miles runAvg speedWind from/ knotsBaromVisibWave heightAir tempDewpointWater temp
2015-Mar-06 21:26N 39°18' E 000°01'10 9.3
2015-Mar-06 20:20N 39°27' W 000°05'8 9.3
2015-Mar-06 19:29N 39°34' W 000°10'5 0.2
2015-Mar-05 20:04N 39°39' W 000°13'2 3.4
2015-Mar-05 19:30N 39°37' W 000°12'1 0.9
2015-Mar-05 18:30N 39°37' W 000°11'0 0.0
2015-Mar-05 16:27N 39°37' W 000°11'0 0.0
2015-Mar-04 11:20N 39°37' W 000°11'5 0.2
2015-Mar-03 13:21N 39°33' W 000°07'61 9.8
2015-Mar-03 07:07N 38°37' E 000°24'610.4
2015-Mar-03 06:33N 38°32' E 000°19'1110.6
2015-Mar-03 05:33N 38°23' E 000°11'1110.6
2015-Mar-03 04:33N 38°14' E 000°04'1010.3
2015-Mar-03 03:33N 38°06' W 000°03'1010.3
2015-Mar-03 02:33N 37°57' W 000°10'1010.3
2015-Mar-03 01:33N 37°49' W 000°18'1010.2
2015-Mar-03 00:33N 37°40' W 000°25'1010.1
2015-Mar-02 23:33N 37°32' W 000°33'10 9.9
2015-Mar-02 22:33N 37°31' W 000°45'1010.3
2015-Mar-02 21:33N 37°31' W 000°58'3 0.1
2015-Feb-28 19:15N 37°34' W 000°60'4 6.4
2015-Feb-28 18:33N 37°33' W 001°05'1 0.1
2015-Feb-28 07:27N 37°33' W 001°07'0 0.0
2015-Feb-27 19:32N 37°33' W 001°07'0 0.0
2015-Feb-27 18:26N 37°33' W 001°07'0 0.0
2015-Feb-27 17:08N 37°33' W 001°07'0 0.0
2015-Feb-27 15:20N 37°33' W 001°07'0 0.1
2015-Feb-27 14:32N 37°33' W 001°07'0 0.1
2015-Feb-27 13:33N 37°33' W 001°07'0 0.0
2015-Feb-27 12:09N 37°33' W 001°07'0 0.0
2015-Feb-27 11:21N 37°33' W 001°07'0 0.0
2015-Feb-27 10:19N 37°33' W 001°07'217 9.0
2015-Feb-26 10:06N 35°59' W 005°11'712.4
2015-Feb-26 09:33N 35°58' W 005°19'1511.2
2015-Feb-26 08:15N 35°55' W 005°37'  

Dump ship's entire track history